createdAt,value
2022-11-25T00:01:43.696Z,3.36
2022-11-25T00:03:48.934Z,3.36
2022-11-25T00:05:51.620Z,3.36
2022-11-25T00:07:54.431Z,3.37
2022-11-25T00:09:57.276Z,3.45
2022-11-25T00:12:00.107Z,3.43
2022-11-25T00:14:02.849Z,3.42
2022-11-25T00:16:07.359Z,3.46
2022-11-25T00:18:10.209Z,3.39
2022-11-25T00:20:15.733Z,3.43
2022-11-25T00:22:18.600Z,3.46
2022-11-25T00:24:21.308Z,3.46
2022-11-25T00:26:25.390Z,3.45
2022-11-25T00:28:29.062Z,3.41
2022-11-25T00:30:31.747Z,3.36
2022-11-25T00:32:34.454Z,3.39
2022-11-25T00:34:37.296Z,3.34
2022-11-25T00:36:41.844Z,3.36
2022-11-25T00:38:45.272Z,3.40
2022-11-25T00:41:07.955Z,3.43
2022-11-25T00:43:28.835Z,3.41
2022-11-25T00:45:30.607Z,3.34
2022-11-25T00:47:33.388Z,3.35
2022-11-25T00:49:36.616Z,3.35
2022-11-25T00:51:40.979Z,3.29
2022-11-25T00:53:43.806Z,3.27
2022-11-25T00:56:04.146Z,3.28
2022-11-25T00:58:06.888Z,3.29
2022-11-25T01:00:12.624Z,3.34
2022-11-25T01:02:17.225Z,3.36
2022-11-25T01:04:20.105Z,3.33
2022-11-25T01:06:23.817Z,3.39
2022-11-25T01:08:27.950Z,3.49
2022-11-25T01:10:30.694Z,3.54
2022-11-25T01:12:33.406Z,3.56
2022-11-25T01:14:36.610Z,3.62
2022-11-25T01:16:39.577Z,3.58
2022-11-25T01:18:42.571Z,3.62
2022-11-25T01:20:45.372Z,3.63
2022-11-25T01:22:48.159Z,3.57
2022-11-25T01:24:52.298Z,3.53
2022-11-25T01:26:56.067Z,3.59
2022-11-25T01:29:00.979Z,3.58
2022-11-25T01:31:05.160Z,3.58
2022-11-25T01:33:07.887Z,3.67
2022-11-25T01:35:11.401Z,3.67
2022-11-25T01:37:14.132Z,3.64
2022-11-25T01:39:19.425Z,3.64
2022-11-25T01:41:25.577Z,3.66
2022-11-25T01:43:29.578Z,3.73
2022-11-25T01:45:37.572Z,3.68
2022-11-25T01:47:40.277Z,3.59
2022-11-25T01:49:47.386Z,3.58
2022-11-25T01:51:55.096Z,3.55
2022-11-25T01:54:02.226Z,3.50
2022-11-25T01:56:05.430Z,3.41
2022-11-25T01:58:12.625Z,3.31
2022-11-25T02:00:16.688Z,3.26
2022-11-25T02:02:21.657Z,3.33
2022-11-25T02:04:29.256Z,3.45
2022-11-25T02:06:39.885Z,3.40
2022-11-25T02:08:46.675Z,3.28
2022-11-25T02:10:49.659Z,2.94
2022-11-25T02:12:53.537Z,2.90
2022-11-25T02:14:59.796Z,2.79
2022-11-25T02:17:03.098Z,2.77
2022-11-25T02:19:08.251Z,2.75
2022-11-25T02:21:11.107Z,2.70
2022-11-25T02:23:18.904Z,2.69
2022-11-25T02:25:25.222Z,2.75
2022-11-25T02:27:28.686Z,2.72
2022-11-25T02:29:31.507Z,2.72
2022-11-25T02:31:34.300Z,2.72
2022-11-25T02:33:37.158Z,2.77
2022-11-25T02:35:41.989Z,2.71
2022-11-25T02:37:44.777Z,2.66
2022-11-25T02:39:48.803Z,2.67
2022-11-25T02:41:56.375Z,2.79
2022-11-25T02:43:59.406Z,2.70
2022-11-25T02:46:05.639Z,2.58
2022-11-25T02:48:09.859Z,2.47
2022-11-25T02:50:13.899Z,2.52
2022-11-25T02:52:16.654Z,2.53
2022-11-25T02:54:19.454Z,2.65
2022-11-25T02:56:25.241Z,2.52
2022-11-25T02:58:29.711Z,2.51
2022-11-25T03:00:32.394Z,2.51
2022-11-25T03:02:35.230Z,2.58
2022-11-25T03:04:38.899Z,2.64
2022-11-25T03:06:41.815Z,2.47
2022-11-25T03:08:44.580Z,2.48
2022-11-25T03:10:47.327Z,2.45
2022-11-25T03:12:50.154Z,2.45
2022-11-25T03:14:54.276Z,2.47
2022-11-25T03:16:57.068Z,2.57
2022-11-25T03:18:59.831Z,2.53
2022-11-25T03:21:02.824Z,2.46
2022-11-25T03:23:06.639Z,2.36
2022-11-25T03:25:10.332Z,2.38
2022-11-25T03:27:13.081Z,2.21
2022-11-25T03:29:16.076Z,2.28
2022-11-25T03:31:20.484Z,2.26
2022-11-25T03:33:23.265Z,2.22
2022-11-25T03:35:25.930Z,2.30
2022-11-25T03:37:28.883Z,2.18
2022-11-25T03:39:31.706Z,2.23
2022-11-25T03:41:34.645Z,2.23
2022-11-25T03:43:37.374Z,2.21
2022-11-25T03:45:40.230Z,2.27
2022-11-25T03:47:45.142Z,2.23
2022-11-25T03:49:48.116Z,2.19
2022-11-25T03:51:50.879Z,2.14
2022-11-25T03:53:53.792Z,2.14
2022-11-25T03:55:56.607Z,1.93
2022-11-25T03:57:59.299Z,1.88
2022-11-25T04:00:02.208Z,1.73
2022-11-25T04:02:05.217Z,1.66
2022-11-25T04:04:09.342Z,1.58
2022-11-25T04:06:12.173Z,1.54
2022-11-25T04:08:14.967Z,1.45
2022-11-25T04:10:17.860Z,1.41
2022-11-25T04:12:38.257Z,1.35
2022-11-25T04:14:40.979Z,1.40
2022-11-25T04:16:43.763Z,1.54
2022-11-25T04:18:46.570Z,1.43
2022-11-25T04:20:50.768Z,1.34
2022-11-25T04:22:53.755Z,1.41
2022-11-25T04:24:56.519Z,1.42
2022-11-25T04:26:59.200Z,1.41
2022-11-25T04:29:02.236Z,1.58
2022-11-25T04:31:07.879Z,1.54
2022-11-25T04:33:10.674Z,1.64
2022-11-25T04:35:13.471Z,1.62
2022-11-25T04:37:17.602Z,1.70
2022-11-25T04:39:20.451Z,1.68
2022-11-25T04:41:23.461Z,1.65
2022-11-25T04:43:26.279Z,1.71
2022-11-25T04:45:45.352Z,1.74
2022-11-25T04:47:52.066Z,1.88
2022-11-25T04:49:54.822Z,1.91
2022-11-25T04:51:57.799Z,1.95
2022-11-25T04:54:02.002Z,1.93
2022-11-25T04:56:05.878Z,1.85
2022-11-25T04:58:08.698Z,2.01
2022-11-25T05:00:11.784Z,1.89
2022-11-25T05:02:16.296Z,1.84
2022-11-25T05:04:19.032Z,1.86
2022-11-25T05:06:21.816Z,1.82
2022-11-25T05:08:24.574Z,1.86
2022-11-25T05:10:28.643Z,1.85
2022-11-25T05:12:31.889Z,1.89
2022-11-25T05:14:35.719Z,1.93
2022-11-25T05:16:38.671Z,2.04
2022-11-25T05:18:41.436Z,1.95
2022-11-25T05:20:44.925Z,1.91
2022-11-25T05:22:47.666Z,1.88
2022-11-25T05:24:50.450Z,1.89
2022-11-25T05:26:54.471Z,1.91
2022-11-25T05:28:57.191Z,1.94
2022-11-25T05:30:59.992Z,1.89
2022-11-25T05:33:02.751Z,1.87
2022-11-25T05:35:05.971Z,1.88
2022-11-25T05:37:09.204Z,1.77
2022-11-25T05:39:11.959Z,1.83
2022-11-25T05:41:14.733Z,1.74
2022-11-25T05:43:18.955Z,1.72
2022-11-25T05:45:21.665Z,1.77
2022-11-25T05:47:24.393Z,1.87
2022-11-25T05:49:27.129Z,1.86
2022-11-25T05:51:29.995Z,1.83
2022-11-25T05:53:33.019Z,1.79
2022-11-25T05:55:35.682Z,1.79
2022-11-25T05:57:38.449Z,1.86
2022-11-25T05:59:42.579Z,1.82
2022-11-25T06:01:45.275Z,1.83
2022-11-25T06:03:48.062Z,1.79
2022-11-25T06:05:50.835Z,1.85
2022-11-25T06:07:53.978Z,1.78
2022-11-25T06:10:02.713Z,1.81
2022-11-25T06:12:06.114Z,1.83
2022-11-25T06:14:08.816Z,1.80
2022-11-25T06:16:15.564Z,1.85
2022-11-25T06:18:19.370Z,1.85
2022-11-25T06:20:22.124Z,1.98
2022-11-25T06:22:24.846Z,2.20
2022-11-25T06:24:27.595Z,2.16
2022-11-25T06:26:30.604Z,2.20
2022-11-25T06:28:33.438Z,2.28
2022-11-25T06:30:36.179Z,2.33
2022-11-25T06:32:40.260Z,2.38
2022-11-25T06:34:43.041Z,2.41
2022-11-25T06:36:45.806Z,2.43
2022-11-25T06:38:50.029Z,2.44
2022-11-25T06:40:55.237Z,2.45
2022-11-25T06:43:00.438Z,2.48
2022-11-25T06:45:03.298Z,2.45
2022-11-25T06:47:06.274Z,2.46
2022-11-25T06:49:10.365Z,2.49
2022-11-25T06:51:15.415Z,2.48
2022-11-25T06:53:23.807Z,2.52
2022-11-25T06:55:26.852Z,2.46
2022-11-25T06:57:29.587Z,2.48
2022-11-25T06:59:33.491Z,2.55
2022-11-25T07:01:36.397Z,2.56
2022-11-25T07:03:39.600Z,2.60
2022-11-25T07:05:43.790Z,2.63
2022-11-25T07:07:46.644Z,2.74
2022-11-25T07:09:49.352Z,2.84
2022-11-25T07:11:52.105Z,2.98
2022-11-25T07:13:55.969Z,3.03
2022-11-25T07:16:02.075Z,3.13
2022-11-25T07:18:05.250Z,3.17
2022-11-25T07:20:09.075Z,3.32
2022-11-25T07:22:13.160Z,3.34
2022-11-25T07:24:17.519Z,3.40
2022-11-25T07:26:22.369Z,3.41
2022-11-25T07:28:25.096Z,3.50
2022-11-25T07:32:50.548Z,3.49
2022-11-25T07:34:53.271Z,3.50
2022-11-25T07:36:55.948Z,3.51
2022-11-25T07:39:01.425Z,3.51
2022-11-25T07:41:06.359Z,3.56
2022-11-25T07:43:09.043Z,3.58
2022-11-25T07:45:12.014Z,3.68
2022-11-25T07:47:14.766Z,3.76
2022-11-25T07:49:19.511Z,3.73
2022-11-25T07:51:24.257Z,3.76
2022-11-25T07:53:26.990Z,3.70
2022-11-25T07:55:31.092Z,3.67
2022-11-25T07:57:33.795Z,3.64
2022-11-25T07:59:41.213Z,3.69
2022-11-25T08:01:44.541Z,3.75
2022-11-25T08:03:49.718Z,3.68
2022-11-25T08:05:52.433Z,3.70
2022-11-25T08:07:55.244Z,3.78
2022-11-25T08:09:57.955Z,3.77
2022-11-25T08:12:02.318Z,3.75
2022-11-25T08:14:05.608Z,3.77
2022-11-25T08:16:09.066Z,3.84
2022-11-25T08:18:12.006Z,3.83
2022-11-25T08:20:15.053Z,3.73
2022-11-25T08:22:17.765Z,3.78
2022-11-25T08:24:21.957Z,3.76
2022-11-25T08:26:26.797Z,3.86
2022-11-25T08:28:30.969Z,3.93
2022-11-25T08:30:33.818Z,4.00
2022-11-25T08:32:38.579Z,3.97
2022-11-25T08:34:41.297Z,3.91
2022-11-25T08:36:48.279Z,4.00
2022-11-25T08:38:53.801Z,4.09
2022-11-25T08:40:57.490Z,4.07
2022-11-25T08:43:00.412Z,4.20
2022-11-25T08:45:05.791Z,4.23
2022-11-25T08:47:09.870Z,4.27
2022-11-25T08:49:13.567Z,4.30
2022-11-25T08:51:19.124Z,4.51
2022-11-25T08:53:22.960Z,4.49
2022-11-25T08:55:27.291Z,4.64
2022-11-25T08:57:29.975Z,4.59
2022-11-25T08:59:32.701Z,4.65
2022-11-25T09:01:36.798Z,4.77
2022-11-25T09:03:41.540Z,4.75
2022-11-25T09:05:45.515Z,4.85
2022-11-25T09:07:48.361Z,5.10
2022-11-25T09:09:51.114Z,5.53
2022-11-25T09:11:53.955Z,5.50
2022-11-25T09:13:56.858Z,5.73
2022-11-25T09:16:01.209Z,5.90
2022-11-25T09:18:08.079Z,6.18
2022-11-25T09:20:11.076Z,5.94
2022-11-25T09:22:13.796Z,6.16
2022-11-25T09:24:16.568Z,6.68
2022-11-25T09:26:23.467Z,6.36
2022-11-25T09:28:27.719Z,6.64
2022-11-25T09:30:30.843Z,6.34
2022-11-25T09:32:33.567Z,6.28
2022-11-25T09:34:37.943Z,6.19
2022-11-25T09:36:40.740Z,6.36
2022-11-25T09:38:44.973Z,6.18
2022-11-25T09:40:56.362Z,6.24
2022-11-25T09:43:25.425Z,6.39
2022-11-25T09:45:54.175Z,6.33
2022-11-25T09:48:07.633Z,6.11
2022-11-25T09:50:19.865Z,6.17
2022-11-25T09:52:31.249Z,6.25
2022-11-25T09:54:38.015Z,6.29
2022-11-25T09:56:43.171Z,6.34
2022-11-25T09:58:52.820Z,6.41
2022-11-25T10:00:55.635Z,6.34
2022-11-25T10:03:05.652Z,6.40
2022-11-25T10:05:14.545Z,6.46
2022-11-25T10:07:23.024Z,6.39
2022-11-25T10:09:28.832Z,6.52
2022-11-25T10:11:47.799Z,6.47
2022-11-25T10:13:55.807Z,6.52
2022-11-25T10:16:00.573Z,6.56
2022-11-25T10:18:11.554Z,6.59
2022-11-25T10:20:21.027Z,6.75
2022-11-25T10:22:27.575Z,6.68
2022-11-25T10:24:30.263Z,6.72
2022-11-25T10:26:41.241Z,6.86
2022-11-25T10:28:53.092Z,6.99
2022-11-25T10:31:02.319Z,7.18
2022-11-25T10:33:14.975Z,7.40
2022-11-25T10:35:25.699Z,7.58
2022-11-25T10:37:34.875Z,7.55
2022-11-25T10:39:37.591Z,7.58
2022-11-25T10:41:47.541Z,7.67
2022-11-25T10:43:50.482Z,7.80
2022-11-25T10:46:03.811Z,8.12
2022-11-25T10:48:19.656Z,8.13
2022-11-25T10:50:32.388Z,8.11
2022-11-25T10:52:41.864Z,8.20
2022-11-25T10:54:57.428Z,8.20
2022-11-25T10:57:02.257Z,8.03
2022-11-25T10:59:14.960Z,8.04
2022-11-25T11:01:21.789Z,8.11
2022-11-25T11:03:27.743Z,8.07
2022-11-25T11:05:31.933Z,8.11
2022-11-25T11:07:38.569Z,8.00
2022-11-25T11:09:41.820Z,8.05
2022-11-25T11:11:48.925Z,8.07
2022-11-25T11:13:59.741Z,8.02
2022-11-25T11:16:03.054Z,8.08
2022-11-25T11:18:24.313Z,8.13
2022-11-25T11:20:29.682Z,8.29
2022-11-25T11:22:33.882Z,8.27
2022-11-25T11:24:38.986Z,8.15
2022-11-25T11:26:41.932Z,8.15
2022-11-25T11:28:45.356Z,8.22
2022-11-25T11:30:57.714Z,8.25
2022-11-25T11:33:06.529Z,8.35
2022-11-25T11:35:22.130Z,8.36
2022-11-25T11:37:37.609Z,8.29
2022-11-25T11:40:03.165Z,8.40
2022-11-25T11:42:15.095Z,8.25
2022-11-25T11:44:28.461Z,8.38
2022-11-25T11:46:41.953Z,8.38
2022-11-25T11:48:56.217Z,8.45
2022-11-25T11:51:07.274Z,8.37
2022-11-25T11:53:21.943Z,8.23
2022-11-25T11:55:40.738Z,8.21
2022-11-25T11:57:54.362Z,8.27
2022-11-25T11:59:59.629Z,8.25
2022-11-25T12:02:23.975Z,8.33
2022-11-25T12:04:32.123Z,8.11
2022-11-25T12:06:38.676Z,8.02
2022-11-25T12:08:50.908Z,7.97
2022-11-25T12:10:59.522Z,7.75
2022-11-25T12:13:12.640Z,7.72
2022-11-25T12:15:20.922Z,7.77
2022-11-25T12:17:29.691Z,7.75
2022-11-25T12:19:40.412Z,7.70
2022-11-25T12:21:52.416Z,7.83
2022-11-25T12:24:04.119Z,7.74
2022-11-25T12:26:26.743Z,7.78
2022-11-25T12:28:36.601Z,7.77
2022-11-25T12:30:45.776Z,7.86
2022-11-25T12:32:54.595Z,7.98
2022-11-25T12:35:03.215Z,8.19
2022-11-25T12:37:15.254Z,8.25
2022-11-25T12:39:26.648Z,8.38
2022-11-25T12:41:41.449Z,8.41
2022-11-25T12:43:48.793Z,8.40
2022-11-25T12:46:01.387Z,8.42
2022-11-25T12:48:04.307Z,8.40
2022-11-25T12:50:15.425Z,8.41
2022-11-25T12:52:47.774Z,8.48
2022-11-25T12:55:10.855Z,8.30
2022-11-25T12:57:49.215Z,8.33
2022-11-25T13:00:39.385Z,8.23
2022-11-25T13:03:01.104Z,8.20
2022-11-25T13:05:48.644Z,8.31
2022-11-25T13:08:04.539Z,8.27
2022-11-25T13:10:29.588Z,8.15
2022-11-25T13:12:42.403Z,8.05
2022-11-25T13:15:14.161Z,8.08
2022-11-25T13:17:18.876Z,7.98
2022-11-25T13:19:22.231Z,7.87
2022-11-25T13:21:29.046Z,7.74
2022-11-25T13:23:48.658Z,7.73
2022-11-25T13:26:12.871Z,7.73
2022-11-25T13:28:31.630Z,7.73
2022-11-25T13:30:40.103Z,7.71
2022-11-25T13:32:46.165Z,7.72
2022-11-25T13:34:49.069Z,7.74
2022-11-25T13:36:53.160Z,7.70
2022-11-25T13:39:04.107Z,7.69
2022-11-25T13:41:23.403Z,7.75
2022-11-25T13:43:26.465Z,7.65
2022-11-25T13:45:33.709Z,7.68
2022-11-25T13:47:39.364Z,7.81
2022-11-25T13:49:53.194Z,7.83
2022-11-25T13:52:17.734Z,7.92
2022-11-25T13:54:23.592Z,8.08
2022-11-25T13:56:30.225Z,8.05
2022-11-25T13:58:36.061Z,8.19
2022-11-25T14:01:05.540Z,8.20
2022-11-25T14:03:44.830Z,8.22
2022-11-25T14:06:01.822Z,8.42
2022-11-25T14:08:15.843Z,8.30
2022-11-25T14:10:32.408Z,8.25
2022-11-25T14:12:49.613Z,8.12
2022-11-25T14:15:12.803Z,8.13
2022-11-25T14:17:31.896Z,8.15
2022-11-25T14:20:05.137Z,8.11
2022-11-25T14:22:24.077Z,8.13
2022-11-25T14:24:35.246Z,7.92
2022-11-25T14:26:55.908Z,7.99
2022-11-25T14:29:03.623Z,8.05
2022-11-25T14:31:10.366Z,8.06
2022-11-25T14:33:16.845Z,8.04
2022-11-25T14:35:22.924Z,8.13
2022-11-25T14:37:30.728Z,8.12
2022-11-25T14:39:37.690Z,8.14
2022-11-25T14:41:45.383Z,8.01
2022-11-25T14:43:53.636Z,8.02
2022-11-25T14:46:10.770Z,7.99
2022-11-25T14:48:16.809Z,7.91
2022-11-25T14:50:34.585Z,7.90
2022-11-25T14:52:38.133Z,8.06
2022-11-25T14:54:42.838Z,8.07
2022-11-25T14:56:46.270Z,8.04
2022-11-25T14:58:50.928Z,8.02
2022-11-25T15:01:01.734Z,7.92
2022-11-25T15:03:06.569Z,7.85
2022-11-25T15:05:20.711Z,7.95
2022-11-25T15:07:30.736Z,7.97
2022-11-25T15:09:39.388Z,7.98
2022-11-25T15:11:42.350Z,7.96
2022-11-25T15:13:47.768Z,7.95
2022-11-25T15:15:51.743Z,7.94
2022-11-25T15:17:55.368Z,7.93
2022-11-25T15:20:00.364Z,7.77
2022-11-25T15:22:22.321Z,7.80
2022-11-25T15:24:28.328Z,7.90
2022-11-25T15:26:33.586Z,7.83
2022-11-25T15:28:37.658Z,7.80
2022-11-25T15:30:40.401Z,7.72
2022-11-25T15:32:43.251Z,7.66
2022-11-25T15:34:47.353Z,7.76
2022-11-25T15:36:54.195Z,7.74
2022-11-25T15:39:15.003Z,7.78
2022-11-25T15:41:33.855Z,7.82
2022-11-25T15:43:42.017Z,7.71
2022-11-25T15:45:47.206Z,7.76
2022-11-25T15:47:50.486Z,7.78
2022-11-25T15:50:01.130Z,7.76
2022-11-25T15:52:07.093Z,7.88
2022-11-25T15:54:20.098Z,7.78
2022-11-25T15:56:27.103Z,7.61
2022-11-25T15:58:30.456Z,7.56
2022-11-25T16:00:33.496Z,7.64
2022-11-25T16:02:39.203Z,7.62
2022-11-25T16:04:42.018Z,7.56
2022-11-25T16:06:55.004Z,7.58
2022-11-25T16:09:00.566Z,7.59
2022-11-25T16:11:19.501Z,7.54
2022-11-25T16:13:38.442Z,7.54
2022-11-25T16:15:46.925Z,7.47
2022-11-25T16:17:49.652Z,7.46
2022-11-25T16:19:52.417Z,7.34
2022-11-25T16:22:00.103Z,7.32
2022-11-25T16:24:14.984Z,7.25
2022-11-25T16:26:23.930Z,7.22
2022-11-25T16:28:26.810Z,7.19
2022-11-25T16:30:29.604Z,7.21
2022-11-25T16:32:33.688Z,7.27
2022-11-25T16:34:36.738Z,7.23
2022-11-25T16:36:39.670Z,7.27
2022-11-25T16:38:42.512Z,7.22
2022-11-25T16:40:45.923Z,7.37
2022-11-25T16:42:51.678Z,7.20
2022-11-25T16:44:54.456Z,7.24
2022-11-25T16:46:58.473Z,7.27
2022-11-25T16:49:05.442Z,7.33
2022-11-25T16:51:14.645Z,7.30
2022-11-25T16:53:17.742Z,7.35
2022-11-25T16:55:20.546Z,7.26
2022-11-25T16:57:23.601Z,7.33
2022-11-25T16:59:31.657Z,7.29
2022-11-25T17:01:35.268Z,7.28
2022-11-25T17:03:38.263Z,7.29
2022-11-25T17:05:41.027Z,7.43
2022-11-25T17:07:43.862Z,7.32
2022-11-25T17:09:47.337Z,7.31
2022-11-25T17:11:54.857Z,7.28
2022-11-25T17:14:00.737Z,7.25
2022-11-25T17:16:05.426Z,7.29
2022-11-25T17:18:09.070Z,7.21
2022-11-25T17:20:15.974Z,7.23
2022-11-25T17:22:21.008Z,7.25
2022-11-25T17:24:25.517Z,7.17
2022-11-25T17:26:36.825Z,7.17
2022-11-25T17:28:39.769Z,7.17
2022-11-25T17:30:43.899Z,7.13
2022-11-25T17:32:48.904Z,7.22
2022-11-25T17:34:51.809Z,7.23
2022-11-25T17:36:54.675Z,7.11
2022-11-25T17:38:57.626Z,7.12
2022-11-25T17:41:00.366Z,7.30
2022-11-25T17:43:03.191Z,7.17
2022-11-25T17:45:13.216Z,7.23
2022-11-25T17:47:18.202Z,7.17
2022-11-25T17:49:22.749Z,7.13
2022-11-25T17:51:25.519Z,7.22
2022-11-25T17:53:28.291Z,7.20
2022-11-25T17:55:32.253Z,7.27
2022-11-25T17:57:35.643Z,7.27
2022-11-25T17:59:38.589Z,7.22
2022-11-25T18:01:41.481Z,7.18
2022-11-25T18:03:44.225Z,7.31
2022-11-25T18:05:48.288Z,7.33
2022-11-25T18:07:51.489Z,7.29
2022-11-25T18:09:54.280Z,7.29
2022-11-25T18:12:00.240Z,7.27
2022-11-25T18:14:03.075Z,7.35
2022-11-25T18:16:06.888Z,7.33
2022-11-25T18:18:20.149Z,7.24
2022-11-25T18:20:25.634Z,7.31
2022-11-25T18:22:30.788Z,7.30
2022-11-25T18:24:33.458Z,7.14
2022-11-25T18:26:43.643Z,7.18
2022-11-25T18:28:46.634Z,7.07
2022-11-25T18:30:50.468Z,7.04
2022-11-25T18:32:53.812Z,7.05
2022-11-25T18:34:56.819Z,7.05
2022-11-25T18:36:59.710Z,6.96
2022-11-25T18:39:04.016Z,7.05
2022-11-25T18:41:07.111Z,7.02
2022-11-25T18:43:15.910Z,7.14
2022-11-25T18:45:21.491Z,7.13
2022-11-25T18:47:24.632Z,7.16
2022-11-25T18:49:27.661Z,7.06
2022-11-25T18:51:30.437Z,7.10
2022-11-25T18:53:33.543Z,7.15
2022-11-25T18:55:38.088Z,7.12
2022-11-25T18:57:42.446Z,7.15
2022-11-25T18:59:48.040Z,7.20
2022-11-25T19:01:59.040Z,7.21
2022-11-25T19:04:01.817Z,7.10
2022-11-25T19:06:04.711Z,7.20
2022-11-25T19:08:07.457Z,7.23
2022-11-25T19:10:13.752Z,7.14
2022-11-25T19:12:21.335Z,7.19
2022-11-25T19:14:30.976Z,7.17
2022-11-25T19:16:34.086Z,7.06
2022-11-25T19:18:36.982Z,6.90
2022-11-25T19:20:39.747Z,6.87
2022-11-25T19:22:42.688Z,6.83
2022-11-25T19:24:45.934Z,6.73
2022-11-25T19:26:50.991Z,6.87
2022-11-25T19:29:00.635Z,6.61
2022-11-25T19:31:04.845Z,6.61
2022-11-25T19:33:16.266Z,6.75
2022-11-25T19:35:23.688Z,6.70
2022-11-25T19:37:29.976Z,6.66
2022-11-25T19:39:36.651Z,6.70
2022-11-25T19:41:39.356Z,6.69
2022-11-25T19:43:42.060Z,6.61
2022-11-25T19:45:46.707Z,6.61
2022-11-25T19:47:51.907Z,6.56
2022-11-25T19:49:58.411Z,6.58
2022-11-25T19:52:01.174Z,6.54
2022-11-25T19:54:04.216Z,6.49
2022-11-25T19:56:07.739Z,6.50
2022-11-25T19:58:10.767Z,6.46
2022-11-25T20:00:15.529Z,6.51
2022-11-25T20:02:23.158Z,6.42
2022-11-25T20:04:26.180Z,6.44
2022-11-25T20:06:30.314Z,6.51
2022-11-25T20:08:33.038Z,6.45
2022-11-25T20:10:36.072Z,6.52
2022-11-25T20:12:38.780Z,6.42
2022-11-25T20:14:41.623Z,6.45
2022-11-25T20:16:44.384Z,6.57
2022-11-25T20:18:49.321Z,6.52
2022-11-25T20:20:57.197Z,6.48
2022-11-25T20:23:03.569Z,6.40
2022-11-25T20:25:10.656Z,6.47
2022-11-25T20:27:13.914Z,6.40
2022-11-25T20:29:19.415Z,6.37
2022-11-25T20:31:25.144Z,6.42
2022-11-25T20:33:30.145Z,6.49
2022-11-25T20:35:34.553Z,6.46
2022-11-25T20:37:50.559Z,6.39
2022-11-25T20:39:55.187Z,6.46
2022-11-25T20:41:57.913Z,6.51
2022-11-25T20:44:01.494Z,6.44
2022-11-25T20:46:04.619Z,6.44
2022-11-25T20:48:11.465Z,6.45
2022-11-25T20:50:14.344Z,6.43
2022-11-25T20:52:25.079Z,6.46
2022-11-25T20:54:27.960Z,6.53
2022-11-25T20:56:31.290Z,6.53
2022-11-25T20:58:34.520Z,6.44
2022-11-25T21:00:37.285Z,6.35
2022-11-25T21:02:40.008Z,6.38
2022-11-25T21:04:42.951Z,6.28
2022-11-25T21:06:46.177Z,6.33
2022-11-25T21:08:52.713Z,6.26
2022-11-25T21:10:57.176Z,6.28
2022-11-25T21:12:59.986Z,6.23
2022-11-25T21:15:02.700Z,6.26
2022-11-25T21:17:06.252Z,6.06
2022-11-25T21:19:09.006Z,6.07
2022-11-25T21:21:16.963Z,6.01
2022-11-25T21:23:22.895Z,5.94
2022-11-25T21:25:27.172Z,5.93
2022-11-25T21:27:30.235Z,5.89
2022-11-25T21:29:33.220Z,5.85
2022-11-25T21:31:36.034Z,5.83
2022-11-25T21:33:38.821Z,5.77
2022-11-25T21:35:43.704Z,5.74
2022-11-25T21:37:46.591Z,5.85
2022-11-25T21:39:49.447Z,5.75
2022-11-25T21:41:54.109Z,5.74
2022-11-25T21:43:57.034Z,5.54
2022-11-25T21:46:03.110Z,5.53
2022-11-25T21:48:15.014Z,5.52
2022-11-25T21:50:19.599Z,5.52
2022-11-25T21:52:22.718Z,5.47
2022-11-25T21:54:25.461Z,5.63
2022-11-25T21:56:31.877Z,5.61
2022-11-25T21:58:36.260Z,5.61
2022-11-25T22:00:39.024Z,5.68
2022-11-25T22:02:44.000Z,5.57
2022-11-25T22:04:46.762Z,5.63
2022-11-25T22:06:50.968Z,5.65
2022-11-25T22:08:53.995Z,5.61
2022-11-25T22:10:56.866Z,5.64
2022-11-25T22:12:59.666Z,5.56
2022-11-25T22:15:04.063Z,5.47
2022-11-25T22:17:11.457Z,5.45
2022-11-25T22:19:20.602Z,5.52
2022-11-25T22:21:23.427Z,5.40
2022-11-25T22:23:26.527Z,5.38
2022-11-25T22:25:31.866Z,5.28
2022-11-25T22:27:37.022Z,5.31
2022-11-25T22:29:40.003Z,5.26
2022-11-25T22:31:44.618Z,5.49
2022-11-25T22:33:48.209Z,5.37
2022-11-25T22:35:51.307Z,5.36
2022-11-25T22:37:55.489Z,5.36
2022-11-25T22:39:58.451Z,5.29
2022-11-25T22:42:05.213Z,5.26
2022-11-25T22:44:09.797Z,5.34
2022-11-25T22:46:12.627Z,5.22
2022-11-25T22:48:19.271Z,5.34
2022-11-25T22:50:27.450Z,5.29
2022-11-25T22:52:32.387Z,5.35
2022-11-25T22:54:35.289Z,5.33
2022-11-25T22:56:38.193Z,5.48
2022-11-25T22:58:40.922Z,5.51
2022-11-25T23:00:46.420Z,5.25
2022-11-25T23:02:50.475Z,5.23
2022-11-25T23:04:56.796Z,5.17
2022-11-25T23:06:59.514Z,5.16
2022-11-25T23:09:03.007Z,5.25
2022-11-25T23:11:05.982Z,5.15
2022-11-25T23:13:09.051Z,5.11
2022-11-25T23:15:14.981Z,5.16
2022-11-25T23:17:20.344Z,5.10
2022-11-25T23:19:23.076Z,5.08
2022-11-25T23:21:29.070Z,5.07
2022-11-25T23:23:32.132Z,5.06
2022-11-25T23:25:34.905Z,5.01
2022-11-25T23:27:37.582Z,5.04
2022-11-25T23:29:40.559Z,5.03
2022-11-25T23:31:43.798Z,4.93
2022-11-25T23:33:49.341Z,4.91
2022-11-25T23:35:52.201Z,4.96
2022-11-25T23:37:58.132Z,4.86
2022-11-25T23:40:00.901Z,4.84
2022-11-25T23:42:03.650Z,4.90
2022-11-25T23:44:14.622Z,4.96
2022-11-25T23:46:20.009Z,4.90
2022-11-25T23:48:25.895Z,4.85
2022-11-25T23:50:32.373Z,4.87
2022-11-25T23:52:35.141Z,4.81
2022-11-25T23:54:42.505Z,4.73
2022-11-25T23:56:45.213Z,4.70
2022-11-25T23:58:49.426Z,4.64
